Latest Weather Observations for Hopetoun North

IDW60801

Issued at 4:12 pm WST Sunday 1 March 2015 (issued every 30 minutes, with the page automatically refreshed every 10 minutes)

About weather observations | Map of weather stations | Latest weather observations for WA | Other Formats
Station Details ID: 009961 Name: HOPETOUN NORTH Lat: -33.93 Lon: 120.13 Height: 26.0 m
Data from the previous 72 hours. | See also: Recent months at Hopetoun North
Date/Time
WST
Temp
°C
App
Temp
°C
Dew
Point
Rel
Hum
%
Delta-T
°C
Wind Press
QNH
hPa
Press
MSL
hPa
Rain
since 9 am
mm
Dir
 
Spd
km/h
Gust
km/h
Spd
kts
Gust
kts
01/04:00pm 20.6 19.1 16.8 79 2.3 ESE 20 30 11 16 1011.3 1011.3 0.0
01/03:30pm 20.8 19.2 16.6 77 2.5 SE 20 32 11 17 1011.1 1011.1 0.0
01/03:00pm 21.0 18.6 16.4 75 2.8 SE 24 37 13 20 1010.7 1010.7 0.0
01/02:30pm 20.6 17.7 16.2 76 2.6 SE 26 39 14 21 1011.0 1011.0 0.0
01/02:00pm 21.1 17.7 16.7 76 2.7 SE 30 39 16 21 1011.3 1011.3 0.0
01/01:30pm 20.7 17.7 16.7 78 2.4 SE 28 35 15 19 1011.7 1011.7 0.0
01/01:00pm 20.9 17.9 16.9 78 2.4 SE 28 39 15 21 1011.8 1011.8 0.0
01/12:30pm 21.2 17.6 16.2 73 3.0 ESE 30 39 16 21 1012.1 1012.1 0.0
01/12:00pm 23.0 19.5 15.6 63 4.4 ESE 28 39 15 21 1012.6 1012.6 0.0
01/11:30am 22.5 19.0 15.4 64 4.2 SE 28 39 15 21 1013.4 1013.4 0.0
01/11:00am 22.4 19.1 16.0 67 3.9 ESE 28 37 15 20 1014.0 1014.0 0.0
01/10:30am 23.1 21.3 15.9 64 4.3 ESE 20 35 11 19 1014.5 1014.5 0.0
01/10:00am 23.6 21.9 14.6 57 5.3 E 17 24 9 13 1015.0 1015.0 0.0
01/09:30am 22.8 21.2 15.1 62 4.6 E 17 33 9 18 1015.7 1015.6 0.0
01/09:00am 22.0 21.5 15.8 68 3.7 E 13 17 7 9 1016.1 1016.0 0.0
01/08:30am 20.9 19.3 13.8 64 4.1 E 15 22 8 12 1016.2 1016.1 0.0
01/08:00am 20.3 19.1 14.0 67 3.6 ENE 13 20 7 11 1016.3 1016.2 0.0
01/07:30am 19.0 17.1 14.3 74 2.7 ENE 17 24 9 13 1016.4 1016.3 0.0
01/07:00am 16.7 15.8 13.6 82 1.7 ENE 11 17 6 9 1016.6 1016.5 0.0
01/06:30am 16.0 15.0 13.5 85 1.4 NE 11 13 6 7 1016.7 1016.6 0.0
01/06:00am 15.7 14.2 13.2 85 1.4 NE 13 17 7 9 1016.5 1016.4 0.0
01/05:30am 15.4 14.7 13.1 86 1.3 ENE 9 15 5 8 1016.3 1016.2 0.0
01/05:00am 15.1 14.3 12.8 86 1.3 ENE 9 11 5 6 1016.2 1016.1 0.0
01/04:30am 16.1 14.9 12.8 81 1.8 ENE 11 17 6 9 1016.0 1015.9 0.0
01/04:00am 16.5 14.5 12.8 79 2.1 ENE 15 20 8 11 1016.0 1015.9 0.0
01/03:30am 16.3 14.3 12.7 79 2.0 ENE 15 20 8 11 1016.0 1015.9 0.0
01/03:00am 16.2 15.3 12.6 79 2.0 ENE 9 15 5 8 1016.4 1016.3 0.0
01/02:30am 16.0 14.7 12.6 80 1.9 ENE 11 17 6 9 1016.4 1016.3 0.0
01/02:00am 16.0 14.3 12.6 80 1.9 ENE 13 20 7 11 1016.5 1016.4 0.0
01/01:30am 15.8 14.2 12.9 83 1.6 NE 13 19 7 10 1016.5 1016.4 0.0
01/01:00am 15.7 14.7 13.4 86 1.3 NE 11 15 6 8 1016.8 1016.7 0.0
01/12:30am 15.1 14.9 13.6 91 0.8 NE 7 9 4 5 1017.2 1017.1 0.0
01/12:00am 14.2 13.9 13.2 94 0.6 NE 7 9 4 5 1017.3 1017.2 0.0
 
Date/Time
WST
Temp
°C
App
Temp
°C
Dew
Point
Rel
Hum
%
Delta-T
°C
Wind Press
QNH
hPa
Press
MSL
hPa
Rain
since 9 am
mm
Dir
 
Spd
km/h
Gust
km/h
Spd
kts
Gust
kts
28/11:30pm 13.7 13.2 12.6 93 0.6 NE 7 7 4 4 1017.5 1017.4 0.0
28/11:00pm 14.3 13.9 12.5 89 1.0 NE 6 7 3 4 1017.7 1017.6 0.0
28/10:30pm 15.4 14.5 12.7 84 1.5 ENE 9 13 5 7 1017.9 1017.8 0.0
28/10:00pm 16.0 15.6 12.9 82 1.7 ENE 7 9 4 5 1018.0 1017.9 0.0
28/09:30pm 16.4 15.9 12.8 79 2.0 ENE 7 11 4 6 1018.3 1018.2 0.0
28/09:00pm 17.2 16.8 12.9 76 2.4 ENE 7 9 4 5 1018.4 1018.3 0.0
28/08:30pm 17.9 16.2 12.6 71 3.0 ESE 13 20 7 11 1018.5 1018.4 0.0
28/08:00pm 17.9 16.2 12.6 71 2.9 ESE 13 19 7 10 1018.3 1018.2 0.0
28/07:30pm 17.7 16.1 12.8 73 2.7 ESE 13 19 7 10 1018.2 1018.1 0.0
28/07:00pm 17.9 16.3 12.8 72 2.8 ESE 13 20 7 11 1018.0 1017.9 0.0
28/06:30pm 17.9 16.1 13.2 74 2.6 SE 15 24 8 13 1018.0 1017.9 0.0
28/06:00pm 17.9 16.5 13.4 75 2.5 SE 13 20 7 11 1018.1 1018.0 0.0
28/05:30pm 18.1 15.9 13.2 73 2.8 SE 17 24 9 13 1018.1 1018.0 0.0
28/05:00pm 18.4 16.2 13.3 72 2.9 SE 17 24 9 13 1018.3 1018.2 0.0
28/04:30pm 18.9 16.3 13.1 69 3.3 SE 19 28 10 15 1018.3 1018.2 0.0
28/04:00pm 19.1 16.3 13.1 68 3.4 SSE 20 28 11 15 1018.4 1018.3 0.0
28/03:30pm 19.0 16.1 13.0 68 3.4 SSE 20 30 11 16 1018.7 1018.6 0.0
28/03:00pm 19.6 16.5 13.3 67 3.6 SSE 22 30 12 16 1018.7 1018.6 0.0
28/02:30pm 19.3 16.1 13.0 67 3.6 SSE 22 32 12 17 1018.7 1018.6 0.0
28/02:00pm 19.3 15.7 13.0 67 3.6 SSE 24 33 13 18 1018.8 1018.7 0.0
28/01:30pm 20.0 16.2 13.5 66 3.7 SSE 26 39 14 21 1018.8 1018.7 0.0
28/01:00pm 19.3 15.8 13.5 69 3.3 SSE 24 33 13 18 1019.0 1018.9 0.0
28/12:30pm 19.7 16.4 13.9 69 3.3 SSE 24 32 13 17 1019.0 1018.9 0.0
28/12:00pm 19.5 16.2 13.9 70 3.2 SSE 24 32 13 17 1019.0 1018.9 0.0
28/11:30am 20.1 16.9 14.2 69 3.4 SSE 24 32 13 17 1018.9 1018.8 0.0
28/11:00am 19.9 17.1 14.3 70 3.2 SSE 22 32 12 17 1019.2 1019.1 0.0
28/10:30am 19.7 16.4 14.1 70 3.2 SSE 24 32 13 17 1019.3 1019.2 0.0
28/10:00am 19.4 16.3 14.4 73 2.9 SSE 24 33 13 18 1019.0 1018.9 0.0
28/09:30am 18.9 16.3 14.8 77 2.4 SSE 22 30 12 16 1018.7 1018.6 0.0
28/09:00am 19.1 16.2 15.2 78 2.3 SSE 24 35 13 19 1018.4 1018.3 1.8
28/08:30am 19.2 17.1 14.7 75 2.6 SSE 19 26 10 14 1018.0 1017.9 1.8
28/08:00am 18.0 16.2 15.6 86 1.4 SSE 19 26 10 14 1017.8 1017.7 1.8
28/07:30am 18.6 16.8 14.5 77 2.4 S 17 30 9 16 1017.5 1017.4 1.6
28/07:00am 19.2 17.4 14.5 74 2.7 S 17 22 9 12 1017.0 1016.9 1.6
28/06:30am 18.6 16.4 14.3 76 2.5 S 19 30 10 16 1016.6 1016.5 1.6
28/06:00am 18.1 16.4 14.6 80 2.0 S 17 24 9 13 1016.0 1015.9 1.6
28/05:30am 18.0 16.4 14.9 82 1.8 S 17 24 9 13 1015.7 1015.6 1.6
28/05:00am 18.2 16.7 15.3 83 1.7 S 17 22 9 12 1015.2 1015.2 1.6
28/04:30am 18.3 16.0 15.6 84 1.6 S 22 28 12 15 1014.8 1014.8 1.6
28/04:00am 18.1 16.6 16.3 89 1.1 S 19 32 10 17 1014.4 1014.4 1.6
28/03:30am 17.6 15.3 16.6 94 0.6 S 24 33 13 18 1014.0 1014.0 1.6
28/03:00am 17.8 15.5 17.5 98 0.2 SSW 26 35 14 19 1013.7 1013.7 1.6
28/02:30am 17.8 16.6 17.6 99 0.1 SSW 20 28 11 15 1013.5 1013.5 1.6
28/02:00am 18.6 18.5 16.9 90 1.0 SW 13 20 7 11 1013.3 1013.3 0.4
28/01:30am 18.8 17.8 16.6 87 1.3 SW 17 22 9 12 1013.1 1013.1 0.4
28/01:00am 18.6 18.1 16.9 90 1.0 SSW 15 20 8 11 1013.2 1013.2 0.4
28/12:30am 18.3 18.9 16.8 91 0.9 SSW 9 13 5 7 1013.2 1013.2 0.4
28/12:00am 17.1 17.5 15.4 90 1.0 SSW 7 11 4 6 1013.3 1013.3 0.4
 
Date/Time
WST
Temp
°C
App
Temp
°C
Dew
Point
Rel
Hum
%
Delta-T
°C
Wind Press
QNH
hPa
Press
MSL
hPa
Rain
since 9 am
mm
Dir
 
Spd
km/h
Gust
km/h
Spd
kts
Gust
kts
27/11:30pm 17.4 18.1 15.7 90 1.0 SSW 6 9 3 5 1013.4 1013.4 0.4
27/11:00pm 17.4 18.0 15.9 91 0.9 SSW 7 9 4 5 1013.3 1013.3 0.4
27/10:30pm 17.7 18.3 15.9 89 1.1 SSW 7 11 4 6 1013.1 1013.1 0.4
27/10:00pm 18.4 18.4 16.2 87 1.3 SSW 11 13 6 7 1013.0 1013.0 0.4
27/09:30pm 18.8 18.5 16.4 86 1.4 SSW 13 17 7 9 1013.0 1013.0 0.4
27/09:00pm 18.4 18.1 16.4 88 1.2 SSW 13 17 7 9 1012.7 1012.7 0.4
27/08:30pm 18.6 17.8 16.2 86 1.4 SSW 15 20 8 11 1012.4 1012.4 0.4
27/08:00pm 18.7 17.6 16.3 86 1.4 SSW 17 24 9 13 1012.1 1012.0 0.4
27/07:30pm 18.9 17.1 16.1 84 1.7 SSW 20 28 11 15 1011.8 1011.7 0.4
27/07:00pm 18.9 16.3 16.0 83 1.7 SSW 24 37 13 20 1011.2 1011.1 0.4
27/06:30pm 19.0 16.5 16.2 84 1.7 SSW 24 32 13 17 1010.7 1010.6 0.4
27/06:00pm 19.7 16.8 16.2 80 2.1 SSW 26 35 14 19 1010.3 1010.2 0.4
27/05:30pm 19.6 16.0 16.3 81 2.0 SSW 30 43 16 23 1009.8 1009.7 0.4
27/05:00pm 20.1 16.3 16.7 81 2.1 SSW 32 46 17 25 1009.4 1009.3 0.4
27/04:30pm 20.0 17.6 18.3 90 1.1 SW 28 37 15 20 1009.0 1008.9 0.4
27/04:00pm 19.8 16.7 18.5 92 0.8 SSW 32 43 17 23 1008.7 1008.6 0.4
27/03:30pm 19.4 17.4 19.2 99 0.1 SSW 28 35 15 19 1008.3 1008.2 0.4
27/03:00pm 19.2 16.5 19.2 100 0.0 SSW 32 41 17 22 1007.9 1007.8 0.4
27/02:30pm 19.5 16.9 19.5 100 0.0 SSW 32 44 17 24 1007.7 1007.6 0.4
27/02:00pm 20.3 20.0 20.3 100 0.0 SSW 22 33 12 18 1007.5 1007.4 0.4
27/01:30pm 20.4 19.8 20.4 100 0.0 SSW 24 32 13 17 1007.3 1007.2 0.4
27/01:00pm 20.1 17.8 20.1 100 0.0 SSW 32 43 17 23 1007.0 1006.9 0.4
27/12:56pm 20.3 18.8 20.3 100 0.0 SSW 28 43 15 23 1006.9 1006.8 0.4
27/12:30pm 21.0 22.0 21.0 100 0.0 SW 17 22 9 12 1006.5 1006.4 0.2
27/12:00pm 21.7 23.6 21.4 98 0.2 SW 13 15 7 8 1006.2 1006.1 0.0
27/11:30am 21.3 23.6 21.3 100 0.0 S 11 13 6 7 1005.8 1005.7 0.0
27/11:00am 21.1 22.9 21.1 100 0.0 S 13 15 7 8 1005.7 1005.6 0.0
27/10:30am 21.4 23.7 21.4 100 0.0 SSW 11 15 6 8 1005.5 1005.4 0.0
27/10:00am 21.6 23.9 21.4 99 0.1 SSE 11 15 6 8 1005.4 1005.3 0.0
27/09:30am 21.4 24.0 21.2 99 0.1 SE 9 11 5 6 1005.2 1005.1 0.0
27/09:00am 21.2 23.8 21.2 100 0.0 SSE 9 13 5 7 1005.1 1005.0 11.2
27/08:30am 20.9 23.3 20.9 100 0.0 SE 9 13 5 7 1004.9 1004.8 11.2
27/08:00am 20.8 22.8 20.8 100 0.0 SE 11 15 6 8 1004.8 1004.7 11.2
27/07:30am 20.6 22.9 20.6 100 0.0 ESE 9 13 5 7 1004.8 1004.7 11.2
27/07:00am 20.6 22.5 20.6 100 0.0 ESE 11 17 6 9 1004.5 1004.4 11.2
27/06:30am 20.4 23.6 20.4 100 0.0 ESE 4 6 2 3 1004.7 1004.6 11.2
27/06:00am 20.2 23.6 20.2 100 0.0 SE 2 6 1 3 1004.6 1004.5 11.2
27/05:30am 20.1 22.5 20.1 100 0.0 ESE 7 11 4 6 1004.3 1004.2 11.2
27/05:00am 20.1 22.2 20.1 100 0.0 ESE 9 13 5 7 1004.0 1003.9 11.0
27/04:30am 20.1 22.2 20.1 100 0.0 SE 9 15 5 8 1004.3 1004.2 11.0
27/04:00am 19.9 22.2 19.9 100 0.0 SE 7 9 4 5 1004.4 1004.3 11.0
27/03:30am 19.3 21.5 19.3 100 0.0 SSE 6 7 3 4 1004.3 1004.2 11.0
27/03:00am 18.9 21.3 18.9 100 0.0 NE 4 4 2 2 1004.4 1004.3 11.0
27/02:30am 19.2 22.2 19.2 100 0.0 E 2 6 1 3 1004.3 1004.2 11.0
27/02:00am 19.4 21.7 19.4 100 0.0 NE 6 7 3 4 1004.3 1004.2 11.0
27/01:30am 19.6 22.0 19.6 100 0.0 ENE 6 6 3 3 1004.6 1004.5 11.0
27/01:00am 19.6 22.7 19.6 100 0.0 NNE 2 6 1 3 1005.0 1004.9 11.0
27/12:30am 20.1 22.5 20.1 100 0.0 NE 7 11 4 6 1005.2 1005.1 11.0
27/12:00am 20.7 22.9 20.5 99 0.1 WSW 9 17 5 9 1005.4 1005.3 10.2
 
Date/Time
WST
Temp
°C
App
Temp
°C
Dew
Point
Rel
Hum
%
Delta-T
°C
Wind Press
QNH
hPa
Press
MSL
hPa
Rain
since 9 am
mm
Dir
 
Spd
km/h
Gust
km/h
Spd
kts
Gust
kts
26/11:30pm 21.3 23.1 20.3 94 0.6 S 11 24 6 13 1007.5 1007.4 8.8
26/11:23pm 21.8 20.1 19.9 89 1.2 SSW 28 65 15 35 1005.9 1005.8 8.0
26/11:13pm 20.3 20.6 20.3 100 0.0 WNW 19 52 10 28 1008.1 1008.0 7.6
26/11:11pm 20.1 21.4 20.1 100 0.0 N 13 33 7 18 1007.6 1007.5 7.6
26/11:00pm 20.1 22.5 20.1 100 0.0 NE 7 11 4 6 1005.3 1005.2 7.6
26/10:30pm 19.9 21.9 19.9 100 0.0 NE 9 13 5 7 1005.6 1005.5 7.6
26/10:00pm 20.3 23.4 20.3 100 0.0 NNE 4 9 2 5 1006.1 1006.0 7.6
26/09:30pm 20.6 23.2 20.4 99 0.1 NE 7 9 4 5 1006.5 1006.4 7.6
26/09:00pm 20.8 23.1 20.6 99 0.1 NE 9 13 5 7 1006.7 1006.6 7.6
26/08:30pm 20.9 23.8 20.7 99 0.1 ENE 6 9 3 5 1007.0 1006.9 7.6
26/08:00pm 20.8 22.0 20.6 99 0.1 NNE 15 20 8 11 1006.4 1006.3 7.6
26/07:30pm 20.6 22.0 20.4 99 0.1 NE 13 19 7 10 1005.8 1005.7 7.6
26/07:00pm 20.6 21.6 20.3 98 0.2 NE 15 20 8 11 1005.9 1005.8 7.6
26/06:30pm 20.9 22.1 20.6 98 0.2 NE 15 20 8 11 1005.7 1005.6 7.6
26/06:00pm 20.9 22.1 20.6 98 0.2 ENE 15 20 8 11 1006.3 1006.2 7.6
26/05:30pm 21.1 22.7 20.8 98 0.2 SE 13 17 7 9 1006.6 1006.5 7.6
26/05:00pm 21.2 22.4 20.7 97 0.3 SSE 15 24 8 13 1006.9 1006.8 7.6
26/04:30pm 21.3 22.8 20.6 96 0.5 SSE 13 19 7 10 1007.0 1006.9 7.6

Other Formats:

Comma delimited format used in spreadsheet applications
http://www.bom.gov.au/fwo/IDW60801/IDW60801.95635.axf

JavaScript Object Notation format (JSON) in row-major order
http://www.bom.gov.au/fwo/IDW60801/IDW60801.95635.json